Time;durP1;ratioP1;P1;durP2;ratioP2;P2;SDS_P1;SDS_P2;PMS_P1;PMS_P2;Temp;Humidity;BMP_temperature;BMP_pressure;BME280_temperature;BME280_humidity;BME280_pressure;Samples;Min_cycle;Max_cycle;Signal;HPM_P1;HPM_P2
2023/11/19 00:01:27;;;;;;;;;;;;;;;;;;5014969;28;20012;-82
2023/11/19 00:03:53;;;;;;;;;;;;;;;;;;5015135;28;19922;-82
2023/11/19 00:06:18;;;;;;;;;;;;;;;;;;5016018;28;19953;-82
2023/11/19 00:08:43;;;;;;;;;;;;;;;;;;5016516;28;19928;-82
2023/11/19 00:11:08;;;;;;;;;;;;;;;;;;5015899;28;19921;-81
2023/11/19 00:13:33;;;;;;;;;;;;;;;;;;5011621;28;19953;-81
2023/11/19 00:15:58;;;;;;;;;;;;;;;;;;5018408;28;20468;-81
2023/11/19 00:18:23;;;;;;;;;;;;;;;;;;5009615;28;19949;-81
2023/11/19 00:20:49;;;;;;;;;;;;;;;;;;5012660;28;20016;-87
2023/11/19 00:23:14;;;;;;;;;;;;;;;;;;5015171;28;20488;-81
2023/11/19 00:25:39;;;;;;;;;;;;;;;;;;5011233;28;19944;-82
2023/11/19 00:28:04;;;;;;;;;;;;;;;;;;5013318;28;19925;-81
2023/11/19 00:30:31;;;;;;;;;;;;;;;;;;5013104;28;19925;-82
2023/11/19 00:32:56;;;;;;;;;;;;;;;;;;5010949;28;19917;-83
2023/11/19 00:35:21;;;;;;;;;;;;;;;;;;5027676;28;20013;-82
2023/11/19 00:37:47;;;;;;;;;;;;;;;;;;5028160;28;19918;-81
2023/11/19 00:40:12;;;;;;;;;;;;;;;;;;5012215;28;20311;-81
2023/11/19 00:42:37;;;;;;;;;;;;;;;;;;5011134;28;20408;-82
2023/11/19 00:45:02;;;;;;;;;;;;;;;;;;5010762;28;19925;-82
2023/11/19 00:47:28;;;;;;;;;;;;;;;;;;5027759;28;19924;-82
2023/11/19 00:49:53;;;;;;;;;;;;;;;;;;5012145;28;20013;-82
2023/11/19 00:52:18;;;;;;;;;;;;;;;;;;5010696;28;19940;-83
2023/11/19 00:54:43;;;;;;;;;;;;;;;;;;5012506;28;20348;-81
2023/11/19 00:57:08;;;;;;;;;;;;;;;;;;5012268;28;19928;-81
2023/11/19 00:59:33;;;;;;;;;;;;;;;;;;5013113;28;19921;-82
2023/11/19 01:02:03;;;;;;;;;;;;;;;;;;5010278;28;19968;-81
2023/11/19 01:04:28;;;;;;;;;;;;;;;;;;5010960;28;19921;-82
2023/11/19 01:06:54;;;;;;;;;;;;;;;;;;5011113;28;19945;-82
2023/11/19 01:09:19;;;;;;;;;;;;;;;;;;5010814;28;19917;-80
2023/11/19 01:11:45;;;;;;;;;;;;;;;;;;5008973;28;19964;-82
2023/11/19 01:14:10;;;;;;;;;;;;;;;;;;5031463;28;19917;-82
2023/11/19 01:16:36;;;;;;;;;;;;;;;;;;5022580;28;20004;-82
2023/11/19 01:19:04;;;;;;;;;;;;;;;;;;5015186;28;19937;-82
2023/11/19 01:21:30;;;;;;;;;;;;;;;;;;5014585;28;19992;-82
2023/11/19 01:23:55;;;;;;;;;;;;;;;;;;5013755;28;19918;-83
2023/11/19 01:26:20;;;;;;;;;;;;;;;;;;5015861;28;19945;-83
2023/11/19 01:28:48;;;;;;;;;;;;;;;;;;5015272;28;19940;-82
2023/11/19 01:31:14;;;;;;;;;;;;;;;;;;5015563;28;19967;-82
2023/11/19 01:33:41;;;;;;;;;;;;;;;;;;5015819;28;19917;-82
2023/11/19 01:36:07;;;;;;;;;;;;;;;;;;5015006;28;20377;-81
2023/11/19 01:38:33;;;;;;;;;;;;;;;;;;5015010;28;20008;-83
2023/11/19 01:40:58;;;;;;;;;;;;;;;;;;5015351;28;20015;-82
2023/11/19 01:43:23;;;;;;;;;;;;;;;;;;5015457;28;19975;-83
2023/11/19 01:45:50;;;;;;;;;;;;;;;;;;5016340;28;20328;-82
2023/11/19 01:48:15;;;;;;;;;;;;;;;;;;5015244;28;19929;-82
2023/11/19 01:50:41;;;;;;;;;;;;;;;;;;5015574;28;19917;-82
2023/11/19 01:53:06;;;;;;;;;;;;;;;;;;5014867;28;20408;-82
2023/11/19 01:55:32;;;;;;;;;;;;;;;;;;5023264;28;19924;-82
2023/11/19 01:57:58;;;;;;;;;;;;;;;;;;5014505;28;19968;-82
2023/11/19 02:00:23;;;;;;;;;;;;;;;;;;5015093;28;19929;-83
2023/11/19 02:02:49;;;;;;;;;;;;;;;;;;5015220;28;19925;-82
2023/11/19 02:05:15;;;;;;;;;;;;;;;;;;5015005;28;19918;-82
2023/11/19 02:07:40;;;;;;;;;;;;;;;;;;5015585;28;19940;-81
2023/11/19 02:10:12;;;;;;;;;;;;;;;;;;5014116;28;19918;-82
2023/11/19 02:12:37;;;;;;;;;;;;;;;;;;5014195;28;19917;-82
2023/11/19 02:15:03;;;;;;;;;;;;;;;;;;5014736;28;20447;-81
2023/11/19 02:17:28;;;;;;;;;;;;;;;;;;5014902;28;19971;-82
2023/11/19 02:19:56;;;;;;;;;;;;;;;;;;5016163;28;20445;-82
2023/11/19 02:22:22;;;;;;;;;;;;;;;;;;5006494;28;19933;-82
2023/11/19 02:24:47;;;;;;;;;;;;;;;;;;5022919;28;19927;-82
2023/11/19 02:27:12;;;;;;;;;;;;;;;;;;5013060;28;19917;-81
2023/11/19 02:29:38;;;;;;;;;;;;;;;;;;5014788;28;19921;-81
2023/11/19 02:32:03;;;;;;;;;;;;;;;;;;5015203;28;19996;-82
2023/11/19 02:34:28;;;;;;;;;;;;;;;;;;5014494;28;19917;-82
2023/11/19 02:36:54;;;;;;;;;;;;;;;;;;5016637;28;19924;-81
2023/11/19 02:39:21;;;;;;;;;;;;;;;;;;5017958;28;19925;-82
2023/11/19 02:41:47;;;;;;;;;;;;;;;;;;5017155;28;19956;-82
2023/11/19 02:44:13;;;;;;;;;;;;;;;;;;5017926;28;19925;-82
2023/11/19 02:46:42;;;;;;;;;;;;;;;;;;5017975;28;19929;-82
2023/11/19 02:49:09;;;;;;;;;;;;;;;;;;5028713;28;20012;-82
2023/11/19 02:51:35;;;;;;;;;;;;;;;;;;5018260;28;19949;-81
2023/11/19 02:54:00;;;;;;;;;;;;;;;;;;5033368;28;19921;-82
2023/11/19 02:56:26;;;;;;;;;;;;;;;;;;5017580;28;19945;-83
2023/11/19 02:58:51;;;;;;;;;;;;;;;;;;5010365;28;19944;-82
2023/11/19 03:01:23;;;;;;;;;;;;;;;;;;5027729;28;19921;-82
2023/11/19 03:03:53;;;;;;;;;;;;;;;;;;5017329;28;19922;-82
2023/11/19 03:06:19;;;;;;;;;;;;;;;;;;5016552;28;19940;-82
2023/11/19 03:08:44;;;;;;;;;;;;;;;;;;5017927;28;19917;-82
2023/11/19 03:11:10;;;;;;;;;;;;;;;;;;5016919;28;19928;-82
2023/11/19 03:13:35;;;;;;;;;;;;;;;;;;5017143;28;19981;-85
2023/11/19 03:16:01;;;;;;;;;;;;;;;;;;5017781;28;20405;-82
2023/11/19 03:18:28;;;;;;;;;;;;;;;;;;5016889;28;19918;-81
2023/11/19 03:20:53;;;;;;;;;;;;;;;;;;5016156;28;19976;-82
2023/11/19 03:23:19;;;;;;;;;;;;;;;;;;5016519;28;19981;-82
2023/11/19 03:25:44;;;;;;;;;;;;;;;;;;5017099;28;20464;-82
2023/11/19 03:28:10;;;;;;;;;;;;;;;;;;5015716;28;19917;-82
2023/11/19 03:30:36;;;;;;;;;;;;;;;;;;5017287;28;19913;-82
2023/11/19 03:33:02;;;;;;;;;;;;;;;;;;5016884;28;19944;-82
2023/11/19 03:35:28;;;;;;;;;;;;;;;;;;5016500;28;19944;-82
2023/11/19 03:37:53;;;;;;;;;;;;;;;;;;5016173;28;19989;-81
2023/11/19 03:40:21;;;;;;;;;;;;;;;;;;5015651;28;19973;-82
2023/11/19 03:42:47;;;;;;;;;;;;;;;;;;5016191;28;20001;-82
2023/11/19 03:45:12;;;;;;;;;;;;;;;;;;5015816;28;19956;-82
2023/11/19 03:47:38;;;;;;;;;;;;;;;;;;5015842;28;20333;-82
2023/11/19 03:50:04;;;;;;;;;;;;;;;;;;5016532;28;19921;-82
2023/11/19 03:52:29;;;;;;;;;;;;;;;;;;5014944;28;19924;-81
2023/11/19 03:54:55;;;;;;;;;;;;;;;;;;5015509;28;19917;-82
2023/11/19 03:57:20;;;;;;;;;;;;;;;;;;5015510;28;19917;-82
2023/11/19 03:59:45;;;;;;;;;;;;;;;;;;5015115;28;19917;-82
2023/11/19 04:02:11;;;;;;;;;;;;;;;;;;5016317;28;19922;-82
2023/11/19 04:04:37;;;;;;;;;;;;;;;;;;5016341;28;19921;-82
2023/11/19 04:07:03;;;;;;;;;;;;;;;;;;5015757;28;19917;-82
2023/11/19 04:09:28;;;;;;;;;;;;;;;;;;5015183;28;19922;-82
2023/11/19 04:11:56;;;;;;;;;;;;;;;;;;5014851;28;19967;-81
2023/11/19 04:14:21;;;;;;;;;;;;;;;;;;5014261;28;21460;-83
2023/11/19 04:16:47;;;;;;;;;;;;;;;;;;5017218;28;19925;-82
2023/11/19 04:19:12;;;;;;;;;;;;;;;;;;5015222;28;19917;-82
2023/11/19 04:21:37;;;;;;;;;;;;;;;;;;5014538;28;19933;-82
2023/11/19 04:24:03;;;;;;;;;;;;;;;;;;5014788;28;19956;-82
2023/11/19 04:26:28;;;;;;;;;;;;;;;;;;5015219;28;20028;-82
2023/11/19 04:28:53;;;;;;;;;;;;;;;;;;5015322;28;19918;-81
2023/11/19 04:31:19;;;;;;;;;;;;;;;;;;5014809;28;19944;-82
2023/11/19 04:33:45;;;;;;;;;;;;;;;;;;5015199;28;19924;-82
2023/11/19 04:36:10;;;;;;;;;;;;;;;;;;5015815;28;19925;-81
2023/11/19 04:38:35;;;;;;;;;;;;;;;;;;5014796;28;19931;-82
2023/11/19 04:41:00;;;;;;;;;;;;;;;;;;5014667;28;19922;-81
2023/11/19 04:43:25;;;;;;;;;;;;;;;;;;5014432;28;19921;-82
2023/11/19 04:45:51;;;;;;;;;;;;;;;;;;5015395;28;19929;-82
2023/11/19 04:48:16;;;;;;;;;;;;;;;;;;5013433;28;19921;-81
2023/11/19 04:50:42;;;;;;;;;;;;;;;;;;5014480;28;20396;-82
2023/11/19 04:53:07;;;;;;;;;;;;;;;;;;5014416;28;19925;-81
2023/11/19 04:55:33;;;;;;;;;;;;;;;;;;5014220;28;19921;-82
2023/11/19 04:57:58;;;;;;;;;;;;;;;;;;5014316;28;19921;-82
2023/11/19 05:00:23;;;;;;;;;;;;;;;;;;5013445;28;19948;-82
2023/11/19 05:02:52;;;;;;;;;;;;;;;;;;5014814;28;19972;-82
2023/11/19 05:05:17;;;;;;;;;;;;;;;;;;5015333;28;19964;-82
2023/11/19 05:07:42;;;;;;;;;;;;;;;;;;5014804;28;20404;-82
2023/11/19 05:10:08;;;;;;;;;;;;;;;;;;5015519;28;19967;-82
2023/11/19 05:12:34;;;;;;;;;;;;;;;;;;5014110;28;19932;-83
2023/11/19 05:15:00;;;;;;;;;;;;;;;;;;5015821;28;19917;-81
2023/11/19 05:17:25;;;;;;;;;;;;;;;;;;5016220;28;20420;-81
2023/11/19 05:19:51;;;;;;;;;;;;;;;;;;5016091;28;19921;-82
2023/11/19 05:22:16;;;;;;;;;;;;;;;;;;5013386;28;19922;-82
2023/11/19 05:24:41;;;;;;;;;;;;;;;;;;5013962;28;20105;-82
2023/11/19 05:27:07;;;;;;;;;;;;;;;;;;5013838;28;19945;-81
2023/11/19 05:29:33;;;;;;;;;;;;;;;;;;5014028;28;20407;-82
2023/11/19 05:32:01;;;;;;;;;;;;;;;;;;5014074;28;19965;-82
2023/11/19 05:34:27;;;;;;;;;;;;;;;;;;5013245;28;19917;-81
2023/11/19 05:36:52;;;;;;;;;;;;;;;;;;5014140;28;20393;-83
2023/11/19 05:39:21;;;;;;;;;;;;;;;;;;5013809;28;19921;-82
2023/11/19 05:41:47;;;;;;;;;;;;;;;;;;5013705;28;19921;-83
2023/11/19 05:44:12;;;;;;;;;;;;;;;;;;5013469;28;20285;-82
2023/11/19 05:46:42;;;;;;;;;;;;;;;;;;5014047;28;20348;-83
2023/11/19 05:49:07;;;;;;;;;;;;;;;;;;5014237;28;20532;-85
2023/11/19 05:51:35;;;;;;;;;;;;;;;;;;5012312;28;19924;-82
2023/11/19 05:54:00;;;;;;;;;;;;;;;;;;5013503;28;19971;-82
2023/11/19 05:56:32;;;;;;;;;;;;;;;;;;5013365;28;19918;-81
2023/11/19 05:58:57;;;;;;;;;;;;;;;;;;5013317;28;19975;-82
2023/11/19 06:01:23;;;;;;;;;;;;;;;;;;5013773;28;19922;-82
2023/11/19 06:03:49;;;;;;;;;;;;;;;;;;5013975;28;19960;-82
2023/11/19 06:06:15;;;;;;;;;;;;;;;;;;5013755;28;19956;-82
2023/11/19 06:08:41;;;;;;;;;;;;;;;;;;5013946;28;19925;-82
2023/11/19 06:11:07;;;;;;;;;;;;;;;;;;5015961;28;19948;-82
2023/11/19 06:13:32;;;;;;;;;;;;;;;;;;5020744;28;19944;-84
2023/11/19 06:15:58;;;;;;;;;;;;;;;;;;5019793;28;19929;-83
2023/11/19 06:18:23;;;;;;;;;;;;;;;;;;5020608;28;20544;-83
2023/11/19 06:20:49;;;;;;;;;;;;;;;;;;5016403;28;19967;-82
2023/11/19 06:23:15;;;;;;;;;;;;;;;;;;5018547;28;20016;-83
2023/11/19 06:25:40;;;;;;;;;;;;;;;;;;5017990;28;20344;-82
2023/11/19 06:28:06;;;;;;;;;;;;;;;;;;5018695;28;20488;-82
2023/11/19 06:30:32;;;;;;;;;;;;;;;;;;5031311;28;20008;-82
2023/11/19 06:32:57;;;;;;;;;;;;;;;;;;5019421;28;19957;-82
2023/11/19 06:35:23;;;;;;;;;;;;;;;;;;5019215;28;19918;-82
2023/11/19 06:37:48;;;;;;;;;;;;;;;;;;5017823;28;20437;-82
2023/11/19 06:40:15;;;;;;;;;;;;;;;;;;5021191;28;19929;-82
2023/11/19 06:42:41;;;;;;;;;;;;;;;;;;5038867;28;19917;-85
2023/11/19 06:45:06;;;;;;;;;;;;;;;;;;5018395;28;19918;-83
2023/11/19 06:47:31;;;;;;;;;;;;;;;;;;5008257;28;20444;-83
2023/11/19 06:49:57;;;;;;;;;;;;;;;;;;5021506;28;19997;-83
2023/11/19 06:52:22;;;;;;;;;;;;;;;;;;5020321;28;19941;-83
2023/11/19 06:54:48;;;;;;;;;;;;;;;;;;5020853;28;20389;-83
2023/11/19 06:57:13;;;;;;;;;;;;;;;;;;5037062;28;19960;-83
2023/11/19 06:59:39;;;;;;;;;;;;;;;;;;5020176;28;19994;-82
2023/11/19 07:02:07;;;;;;;;;;;;;;;;;;5019439;28;19932;-83
2023/11/19 07:04:33;;;;;;;;;;;;;;;;;;5023380;28;19918;-83
2023/11/19 07:06:58;;;;;;;;;;;;;;;;;;5022283;28;20004;-83
2023/11/19 07:09:23;;;;;;;;;;;;;;;;;;5022649;28;19956;-82
2023/11/19 07:11:51;;;;;;;;;;;;;;;;;;5019404;28;20332;-81
2023/11/19 07:14:17;;;;;;;;;;;;;;;;;;5021413;28;19918;-81
2023/11/19 07:16:42;;;;;;;;;;;;;;;;;;5024488;28;19956;-83
2023/11/19 07:19:07;;;;;;;;;;;;;;;;;;5020180;28;19956;-82
2023/11/19 07:21:33;;;;;;;;;;;;;;;;;;5020167;28;19925;-83
2023/11/19 07:23:58;;;;;;;;;;;;;;;;;;5019171;28;19925;-83
2023/11/19 07:26:24;;;;;;;;;;;;;;;;;;5020467;28;20130;-83
2023/11/19 07:28:49;;;;;;;;;;;;;;;;;;5021049;28;19921;-83
2023/11/19 07:31:15;;;;;;;;;;;;;;;;;;5022918;28;20374;-83
2023/11/19 07:33:44;;;;;;;;;;;;;;;;;;5020718;28;19918;-82
2023/11/19 07:36:10;;;;;;;;;;;;;;;;;;5023329;28;19947;-83
2023/11/19 07:38:35;;;;;;;;;;;;;;;;;;5035879;28;19964;-82
2023/11/19 07:41:01;;;;;;;;;;;;;;;;;;5019826;28;19921;-83
2023/11/19 07:43:26;;;;;;;;;;;;;;;;;;5019341;28;19924;-81
2023/11/19 07:45:51;;;;;;;;;;;;;;;;;;5020522;28;19917;-82
2023/11/19 07:48:22;;;;;;;;;;;;;;;;;;5019066;28;20296;-82
2023/11/19 07:50:47;;;;;;;;;;;;;;;;;;5019107;28;20301;-81
2023/11/19 07:53:13;;;;;;;;;;;;;;;;;;5019090;28;19924;-81
2023/11/19 07:55:39;;;;;;;;;;;;;;;;;;5018145;28;19921;-81
2023/11/19 07:58:04;;;;;;;;;;;;;;;;;;5019414;28;19924;-81
2023/11/19 08:00:31;;;;;;;;;;;;;;;;;;5023388;28;19922;-85
2023/11/19 08:02:56;;;;;;;;;;;;;;;;;;5018401;28;20389;-82
2023/11/19 08:05:23;;;;;;;;;;;;;;;;;;5020839;28;19921;-82
2023/11/19 08:07:48;;;;;;;;;;;;;;;;;;5011482;28;19917;-82
2023/11/19 08:10:15;;;;;;;;;;;;;;;;;;5020853;28;19985;-82
2023/11/19 08:12:40;;;;;;;;;;;;;;;;;;5017051;28;19917;-82
2023/11/19 08:15:09;;;;;;;;;;;;;;;;;;5030555;28;19917;-81
2023/11/19 08:17:34;;;;;;;;;;;;;;;;;;5022796;28;19926;-82
2023/11/19 08:20:00;;;;;;;;;;;;;;;;;;5034555;28;19918;-82
2023/11/19 08:22:25;;;;;;;;;;;;;;;;;;5017587;28;19917;-81
2023/11/19 08:24:51;;;;;;;;;;;;;;;;;;5018630;28;19922;-83
2023/11/19 08:27:16;;;;;;;;;;;;;;;;;;5010385;28;19921;-82
2023/11/19 08:29:42;;;;;;;;;;;;;;;;;;5019025;28;19917;-82
2023/11/19 08:32:07;;;;;;;;;;;;;;;;;;5018482;28;19993;-83
2023/11/19 08:34:32;;;;;;;;;;;;;;;;;;5018105;28;19925;-82
2023/11/19 08:36:58;;;;;;;;;;;;;;;;;;5018532;28;19921;-82
2023/11/19 08:39:24;;;;;;;;;;;;;;;;;;5017717;28;19952;-83
2023/11/19 08:41:50;;;;;;;;;;;;;;;;;;5019242;28;20328;-83
2023/11/19 08:44:15;;;;;;;;;;;;;;;;;;5019507;28;19967;-83
2023/11/19 08:46:43;;;;;;;;;;;;;;;;;;5020743;28;19917;-81
2023/11/19 08:49:08;;;;;;;;;;;;;;;;;;5019062;28;20409;-82
2023/11/19 08:51:34;;;;;;;;;;;;;;;;;;5018734;28;20486;-83
2023/11/19 08:53:59;;;;;;;;;;;;;;;;;;5020565;28;19956;-81
2023/11/19 08:56:24;;;;;;;;;;;;;;;;;;5029200;28;19964;-82
2023/11/19 08:58:49;;;;;;;;;;;;;;;;;;5020473;28;19921;-83
2023/11/19 09:01:15;;;;;;;;;;;;;;;;;;5018084;28;20324;-82
2023/11/19 09:03:40;;;;;;;;;;;;;;;;;;5018137;28;19941;-81
2023/11/19 09:06:05;;;;;;;;;;;;;;;;;;5024799;28;19967;-82
2023/11/19 09:08:31;;;;;;;;;;;;;;;;;;5018667;28;19957;-82
2023/11/19 09:10:56;;;;;;;;;;;;;;;;;;5017416;28;19933;-81
2023/11/19 09:13:24;;;;;;;;;;;;;;;;;;5017648;28;20453;-83
2023/11/19 09:15:49;;;;;;;;;;;;;;;;;;5025819;28;19948;-83
2023/11/19 09:18:14;;;;;;;;;;;;;;;;;;5017337;28;20647;-81
2023/11/19 09:20:40;;;;;;;;;;;;;;;;;;5017610;28;19980;-82
2023/11/19 09:23:08;;;;;;;;;;;;;;;;;;5016468;28;19948;-83
2023/11/19 09:25:34;;;;;;;;;;;;;;;;;;5016982;28;19918;-83
2023/11/19 09:27:59;;;;;;;;;;;;;;;;;;5018051;28;19917;-85
2023/11/19 09:30:24;;;;;;;;;;;;;;;;;;5030823;28;19922;-85
2023/11/19 09:32:49;;;;;;;;;;;;;;;;;;5030383;28;20385;-84
2023/11/19 09:35:15;;;;;;;;;;;;;;;;;;5030455;28;19918;-86
2023/11/19 09:37:41;;;;;;;;;;;;;;;;;;5031411;28;19918;-84
2023/11/19 09:40:09;;;;;;;;;;;;;;;;;;5029393;28;19925;-83
2023/11/19 09:42:34;;;;;;;;;;;;;;;;;;5033861;28;19906;-85
2023/11/19 09:44:59;;;;;;;;;;;;;;;;;;5034729;28;19924;-85
2023/11/19 09:47:24;;;;;;;;;;;;;;;;;;5030267;28;19918;-83
2023/11/19 09:49:50;;;;;;;;;;;;;;;;;;5023723;28;19921;-85
2023/11/19 09:52:16;;;;;;;;;;;;;;;;;;5023421;28;19924;-81
2023/11/19 09:54:43;;;;;;;;;;;;;;;;;;5022581;28;19921;-82
2023/11/19 09:57:09;;;;;;;;;;;;;;;;;;5022804;28;19917;-82
2023/11/19 09:59:34;;;;;;;;;;;;;;;;;;5024121;28;19977;-82
2023/11/19 10:02:02;;;;;;;;;;;;;;;;;;5029938;28;19959;-83
2023/11/19 10:04:27;;;;;;;;;;;;;;;;;;5023370;28;19917;-83
2023/11/19 10:06:52;;;;;;;;;;;;;;;;;;5030776;28;19931;-81
2023/11/19 10:09:17;;;;;;;;;;;;;;;;;;5034832;28;19925;-82
2023/11/19 10:11:42;;;;;;;;;;;;;;;;;;5027816;28;19918;-83
2023/11/19 10:14:07;;;;;;;;;;;;;;;;;;5023838;28;19929;-82
2023/11/19 10:16:32;;;;;;;;;;;;;;;;;;5031917;28;19918;-83
2023/11/19 10:18:57;;;;;;;;;;;;;;;;;;5022903;28;19925;-83
2023/11/19 10:21:23;;;;;;;;;;;;;;;;;;5026145;28;20585;-83
2023/11/19 10:23:49;;;;;;;;;;;;;;;;;;5023455;28;19917;-83
2023/11/19 10:26:15;;;;;;;;;;;;;;;;;;5023596;28;19918;-82
2023/11/19 10:28:44;;;;;;;;;;;;;;;;;;5022716;28;20336;-82
2023/11/19 10:31:09;;;;;;;;;;;;;;;;;;5026829;28;20066;-82
2023/11/19 10:33:34;;;;;;;;;;;;;;;;;;5034235;28;19973;-82
2023/11/19 10:35:59;;;;;;;;;;;;;;;;;;5035519;28;19921;-82
2023/11/19 10:38:24;;;;;;;;;;;;;;;;;;5035116;28;20437;-81
2023/11/19 10:40:50;;;;;;;;;;;;;;;;;;5035968;28;19924;-81
2023/11/19 10:43:15;;;;;;;;;;;;;;;;;;5053669;28;19917;-85
2023/11/19 10:45:40;;;;;;;;;;;;;;;;;;5033915;28;19969;-81
2023/11/19 10:48:06;;;;;;;;;;;;;;;;;;5031060;28;19941;-80
2023/11/19 10:50:31;;;;;;;;;;;;;;;;;;5031416;28;19921;-80
2023/11/19 10:52:59;;;;;;;;;;;;;;;;;;5032135;28;19925;-81
2023/11/19 10:55:24;;;;;;;;;;;;;;;;;;5023480;28;20329;-82
2023/11/19 10:57:49;;;;;;;;;;;;;;;;;;5035026;28;20396;-81
2023/11/19 11:00:15;;;;;;;;;;;;;;;;;;5029064;28;19929;-81
2023/11/19 11:02:40;;;;;;;;;;;;;;;;;;5025030;28;19932;-80
2023/11/19 11:05:05;;;;;;;;;;;;;;;;;;5023175;28;19924;-82
2023/11/19 11:07:30;;;;;;;;;;;;;;;;;;5026800;28;19921;-81
2023/11/19 11:09:55;;;;;;;;;;;;;;;;;;5019631;28;20456;-82
2023/11/19 11:12:20;;;;;;;;;;;;;;;;;;5026606;28;19924;-80
2023/11/19 11:14:45;;;;;;;;;;;;;;;;;;5019519;28;19920;-81
2023/11/19 11:17:10;;;;;;;;;;;;;;;;;;5029659;28;19925;-80
2023/11/19 11:19:36;;;;;;;;;;;;;;;;;;5029032;28;20020;-82
2023/11/19 11:22:03;;;;;;;;;;;;;;;;;;5029764;28;19932;-83
2023/11/19 11:24:28;;;;;;;;;;;;;;;;;;5028833;28;19924;-87
2023/11/19 11:26:53;;;;;;;;;;;;;;;;;;5041945;28;20008;-88
2023/11/19 11:29:18;;;;;;;;;;;;;;;;;;5027043;28;19941;-88
2023/11/19 11:31:44;;;;;;;;;;;;;;;;;;5044250;23;19949;-85
2023/11/19 11:34:10;;;;;;;;;;;;;;;;;;5065768;28;19917;-85
2023/11/19 11:36:35;;;;;;;;;;;;;;;;;;5042159;28;19917;-84
2023/11/19 11:39:00;;;;;;;;;;;;;;;;;;5042320;28;19917;-85
2023/11/19 11:41:25;;;;;;;;;;;;;;;;;;5047856;28;19929;-84
2023/11/19 11:43:51;;;;;;;;;;;;;;;;;;5042327;28;19923;-84
2023/11/19 11:46:16;;;;;;;;;;;;;;;;;;5056296;28;19921;-85
2023/11/19 11:48:41;;;;;;;;;;;;;;;;;;5056468;28;19924;-85
2023/11/19 11:51:06;;;;;;;;;;;;;;;;;;5047328;28;19970;-85
2023/11/19 11:53:32;;;;;;;;;;;;;;;;;;5039816;28;19955;-84
2023/11/19 11:55:58;;;;;;;;;;;;;;;;;;5039364;28;19925;-85
2023/11/19 11:58:24;;;;;;;;;;;;;;;;;;5056566;28;19972;-84
2023/11/19 12:00:50;;;;;;;;;;;;;;;;;;5065192;28;20370;-83
2023/11/19 12:03:15;;;;;;;;;;;;;;;;;;5042528;28;19956;-84
2023/11/19 12:05:40;;;;;;;;;;;;;;;;;;5043180;28;19917;-86
2023/11/19 12:08:07;;;;;;;;;;;;;;;;;;5056639;28;19917;-85
2023/11/19 12:10:32;;;;;;;;;;;;;;;;;;5059309;28;19917;-85
2023/11/19 12:12:57;;;;;;;;;;;;;;;;;;5065866;28;19921;-82
2023/11/19 12:15:26;;;;;;;;;;;;;;;;;;5058793;28;19981;-87
2023/11/19 12:17:51;;;;;;;;;;;;;;;;;;5065099;28;19924;-86
2023/11/19 12:20:16;;;;;;;;;;;;;;;;;;5056024;28;19924;-86
2023/11/19 12:22:42;;;;;;;;;;;;;;;;;;5060217;28;19921;-83
2023/11/19 12:25:07;;;;;;;;;;;;;;;;;;5053406;28;19939;-81
2023/11/19 12:27:33;;;;;;;;;;;;;;;;;;5054606;28;19985;-83
2023/11/19 12:29:58;;;;;;;;;;;;;;;;;;5052271;28;19921;-85
2023/11/19 12:32:24;;;;;;;;;;;;;;;;;;5060035;28;19975;-81
2023/11/19 12:34:49;;;;;;;;;;;;;;;;;;5060350;28;19929;-83
2023/11/19 12:37:15;;;;;;;;;;;;;;;;;;5058889;28;19940;-85
2023/11/19 12:39:40;;;;;;;;;;;;;;;;;;5048834;28;20328;-85
2023/11/19 12:42:05;;;;;;;;;;;;;;;;;;5043725;28;19921;-85
2023/11/19 12:44:30;;;;;;;;;;;;;;;;;;5049034;28;19978;-86
2023/11/19 12:46:57;;;;;;;;;;;;;;;;;;5041457;28;19925;-85
2023/11/19 12:49:22;;;;;;;;;;;;;;;;;;5056088;28;19924;-84
2023/11/19 12:51:47;;;;;;;;;;;;;;;;;;5053225;28;19921;-86
2023/11/19 12:54:13;;;;;;;;;;;;;;;;;;5056019;28;19921;-83
2023/11/19 12:56:40;;;;;;;;;;;;;;;;;;5057480;28;19921;-85
2023/11/19 12:59:05;;;;;;;;;;;;;;;;;;5064846;28;19923;-86
2023/11/19 13:01:30;;;;;;;;;;;;;;;;;;5041809;28;19925;-84
2023/11/19 13:03:56;;;;;;;;;;;;;;;;;;5064811;28;19928;-85
2023/11/19 13:06:21;;;;;;;;;;;;;;;;;;5030450;28;19926;-84
2023/11/19 13:08:48;;;;;;;;;;;;;;;;;;5061920;28;20325;-85
2023/11/19 13:11:13;;;;;;;;;;;;;;;;;;5054345;28;19948;-86
2023/11/19 13:13:40;;;;;;;;;;;;;;;;;;5058242;28;19924;-84
2023/11/19 13:16:09;;;;;;;;;;;;;;;;;;5041025;28;20319;-86
2023/11/19 13:18:34;;;;;;;;;;;;;;;;;;5045276;28;19921;-85
2023/11/19 13:21:01;;;;;;;;;;;;;;;;;;5038070;28;19928;-82
2023/11/19 13:23:26;;;;;;;;;;;;;;;;;;5064974;28;19948;-85
2023/11/19 13:25:51;;;;;;;;;;;;;;;;;;5064890;28;19921;-85
2023/11/19 13:28:16;;;;;;;;;;;;;;;;;;5037985;28;19921;-86
2023/11/19 13:30:41;;;;;;;;;;;;;;;;;;5038295;28;19921;-86
2023/11/19 13:33:12;;;;;;;;;;;;;;;;;;5038177;28;20123;-85
2023/11/19 13:35:38;;;;;;;;;;;;;;;;;;5029924;28;19925;-86
2023/11/19 13:38:04;;;;;;;;;;;;;;;;;;5033597;28;19925;-82
2023/11/19 13:40:29;;;;;;;;;;;;;;;;;;5021820;28;19936;-85
2023/11/19 13:42:55;;;;;;;;;;;;;;;;;;5053849;28;19917;-85
2023/11/19 13:45:20;;;;;;;;;;;;;;;;;;5053577;28;19917;-85
2023/11/19 13:47:46;;;;;;;;;;;;;;;;;;5054008;28;20035;-85
2023/11/19 13:50:11;;;;;;;;;;;;;;;;;;5053702;28;19918;-86
2023/11/19 13:52:40;;;;;;;;;;;;;;;;;;5035886;28;19921;-86
2023/11/19 13:55:06;;;;;;;;;;;;;;;;;;5038232;28;19917;-86
2023/11/19 13:57:31;;;;;;;;;;;;;;;;;;5044628;28;19917;-84
2023/11/19 13:59:57;;;;;;;;;;;;;;;;;;5038969;28;20461;-85
2023/11/19 14:02:22;;;;;;;;;;;;;;;;;;5051970;28;20302;-83
2023/11/19 14:04:47;;;;;;;;;;;;;;;;;;5038115;28;20070;-82
2023/11/19 14:07:12;;;;;;;;;;;;;;;;;;5053568;28;19951;-85
2023/11/19 14:09:37;;;;;;;;;;;;;;;;;;5062207;28;19925;-85
2023/11/19 14:12:03;;;;;;;;;;;;;;;;;;5038034;28;19917;-85
2023/11/19 14:14:28;;;;;;;;;;;;;;;;;;5036353;28;19921;-85
2023/11/19 14:16:53;;;;;;;;;;;;;;;;;;5038356;28;19921;-86
2023/11/19 14:19:18;;;;;;;;;;;;;;;;;;5039637;28;19928;-85
2023/11/19 14:21:45;;;;;;;;;;;;;;;;;;5042545;28;19922;-85
2023/11/19 14:24:10;;;;;;;;;;;;;;;;;;5053299;28;20029;-84
2023/11/19 14:26:35;;;;;;;;;;;;;;;;;;5037492;28;19953;-85
2023/11/19 14:29:00;;;;;;;;;;;;;;;;;;5037072;28;19921;-85
2023/11/19 14:31:25;;;;;;;;;;;;;;;;;;5036095;28;19925;-84
2023/11/19 14:33:51;;;;;;;;;;;;;;;;;;5043873;28;19971;-86
2023/11/19 14:36:16;;;;;;;;;;;;;;;;;;5057079;28;19917;-86
2023/11/19 14:38:41;;;;;;;;;;;;;;;;;;5064966;28;19918;-83
2023/11/19 14:41:06;;;;;;;;;;;;;;;;;;5058699;28;20012;-84
2023/11/19 14:43:31;;;;;;;;;;;;;;;;;;5070067;28;19972;-84
2023/11/19 14:45:56;;;;;;;;;;;;;;;;;;5045892;28;19921;-86
2023/11/19 14:48:21;;;;;;;;;;;;;;;;;;5057464;28;20402;-84
2023/11/19 14:50:46;;;;;;;;;;;;;;;;;;5044092;28;19928;-84
2023/11/19 14:53:12;;;;;;;;;;;;;;;;;;5040925;28;19928;-85
2023/11/19 14:55:37;;;;;;;;;;;;;;;;;;5040688;28;19922;-86
2023/11/19 14:58:02;;;;;;;;;;;;;;;;;;5056417;28;19918;-86
2023/11/19 15:00:29;;;;;;;;;;;;;;;;;;5049454;28;19933;-86
2023/11/19 15:02:57;;;;;;;;;;;;;;;;;;5065338;28;19928;-85
2023/11/19 15:05:22;;;;;;;;;;;;;;;;;;5057780;28;19921;-85
2023/11/19 15:07:53;;;;;;;;;;;;;;;;;;5042971;28;19971;-85
2023/11/19 15:10:18;;;;;;;;;;;;;;;;;;5037313;28;20366;-84
2023/11/19 15:12:43;;;;;;;;;;;;;;;;;;5046614;28;19978;-85
2023/11/19 15:15:13;;;;;;;;;;;;;;;;;;5065860;28;19921;-85
2023/11/19 15:17:44;;;;;;;;;;;;;;;;;;5040958;28;19925;-85
2023/11/19 15:20:09;;;;;;;;;;;;;;;;;;5030235;28;19971;-83
2023/11/19 15:22:34;;;;;;;;;;;;;;;;;;5049810;28;19924;-84
2023/11/19 15:25:00;;;;;;;;;;;;;;;;;;5028956;28;19968;-86
2023/11/19 15:27:25;;;;;;;;;;;;;;;;;;5031019;28;20374;-85
2023/11/19 15:29:50;;;;;;;;;;;;;;;;;;5052226;28;19921;-85
2023/11/19 15:32:18;;;;;;;;;;;;;;;;;;5055105;28;20006;-84
2023/11/19 15:34:43;;;;;;;;;;;;;;;;;;5038393;28;19921;-84
2023/11/19 15:37:13;;;;;;;;;;;;;;;;;;5056138;28;19923;-85
2023/11/19 15:39:41;;;;;;;;;;;;;;;;;;5041425;28;20353;-85
2023/11/19 15:42:11;;;;;;;;;;;;;;;;;;5034478;28;19932;-83
2023/11/19 15:44:36;;;;;;;;;;;;;;;;;;5030824;28;19944;-84
2023/11/19 15:47:05;;;;;;;;;;;;;;;;;;5051103;28;19925;-85
2023/11/19 15:49:31;;;;;;;;;;;;;;;;;;5050145;28;19917;-86
2023/11/19 15:51:56;;;;;;;;;;;;;;;;;;5059368;28;20416;-85
2023/11/19 15:54:23;;;;;;;;;;;;;;;;;;5051351;28;19961;-82
2023/11/19 15:56:49;;;;;;;;;;;;;;;;;;5055453;28;19939;-85
2023/11/19 15:59:14;;;;;;;;;;;;;;;;;;5058638;28;20430;-85
2023/11/19 16:01:39;;;;;;;;;;;;;;;;;;5059308;28;19967;-85
2023/11/19 16:04:09;;;;;;;;;;;;;;;;;;5052712;28;19917;-84
2023/11/19 16:06:34;;;;;;;;;;;;;;;;;;5037254;28;19921;-84
2023/11/19 16:08:59;;;;;;;;;;;;;;;;;;5041641;28;19917;-82
2023/11/19 16:14:22;;;;;;;;;;;;;;;;;;5030225;28;19921;-81
2023/11/19 16:17:00;;;;;;;;;;;;;;;;;;;;;
2023/11/19 16:19:36;;;;;;;;;;;;;;;;;;5039730;28;20016;-84
2023/11/19 16:22:18;;;;;;;;;;;;;;;;;;5053686;28;19921;-86
2023/11/19 16:24:43;;;;;;;;;;;;;;;;;;5038003;28;19925;-85
2023/11/19 16:27:09;;;;;;;;;;;;;;;;;;5038803;28;19971;-84
2023/11/19 16:29:34;;;;;;;;;;;;;;;;;;5054435;28;20016;-85
2023/11/19 16:32:00;;;;;;;;;;;;;;;;;;5052248;28;19967;-84
2023/11/19 16:34:25;;;;;;;;;;;;;;;;;;5052332;28;20024;-84
2023/11/19 16:36:50;;;;;;;;;;;;;;;;;;5044524;28;20554;-83
2023/11/19 16:39:15;;;;;;;;;;;;;;;;;;5046941;28;19921;-81